sensor_id;sensor_type;location;lat;lon;timestamp;pressure;altitude;pressure_sealevel;temperature;humidity
27232;BME280;61835;50.196;6.454;2022-09-14T00:01:56;95645.59;;;21.87;100.00
27232;BME280;61835;50.196;6.454;2022-09-14T00:04:22;95648.75;;;21.78;100.00
27232;BME280;61835;50.196;6.454;2022-09-14T00:06:48;95662.63;;;21.94;100.00
27232;BME280;61835;50.196;6.454;2022-09-14T00:09:18;95674.22;;;22.08;100.00
27232;BME280;61835;50.196;6.454;2022-09-14T00:11:44;95695.47;;;21.85;100.00
27232;BME280;61835;50.196;6.454;2022-09-14T00:14:10;95722.03;;;21.88;100.00
27232;BME280;61835;50.196;6.454;2022-09-14T00:16:38;95720.38;;;21.87;100.00
27232;BME280;61835;50.196;6.454;2022-09-14T00:19:07;95710.41;;;21.87;100.00
27232;BME280;61835;50.196;6.454;2022-09-14T00:21:35;95701.72;;;21.72;100.00
27232;BME280;61835;50.196;6.454;2022-09-14T00:24:01;95704.19;;;21.74;100.00
27232;BME280;61835;50.196;6.454;2022-09-14T00:26:27;95701.28;;;21.88;100.00
27232;BME280;61835;50.196;6.454;2022-09-14T00:28:55;95696.75;;;21.69;100.00
27232;BME280;61835;50.196;6.454;2022-09-14T00:31:22;95674.66;;;21.85;100.00
27232;BME280;61835;50.196;6.454;2022-09-14T00:33:48;95671.97;;;21.98;100.00
27232;BME280;61835;50.196;6.454;2022-09-14T00:36:17;95662.41;;;22.02;100.00
27232;BME280;61835;50.196;6.454;2022-09-14T00:38:44;95655.75;;;21.98;100.00
27232;BME280;61835;50.196;6.454;2022-09-14T00:41:14;95641.00;;;22.01;100.00
27232;BME280;61835;50.196;6.454;2022-09-14T00:43:59;95640.78;;;22.02;100.00
27232;BME280;61835;50.196;6.454;2022-09-14T00:46:27;95631.47;;;21.85;100.00
27232;BME280;61835;50.196;6.454;2022-09-14T00:48:55;95623.59;;;21.84;100.00
27232;BME280;61835;50.196;6.454;2022-09-14T00:51:22;95615.75;;;21.76;100.00
27232;BME280;61835;50.196;6.454;2022-09-14T00:53:48;95609.47;;;21.88;100.00
27232;BME280;61835;50.196;6.454;2022-09-14T00:56:14;95604.47;;;21.85;100.00
27232;BME280;61835;50.196;6.454;2022-09-14T00:58:41;95612.34;;;21.87;100.00
27232;BME280;61835;50.196;6.454;2022-09-14T01:01:08;95610.69;;;21.86;100.00
27232;BME280;61835;50.196;6.454;2022-09-14T01:03:35;95604.47;;;21.85;100.00
27232;BME280;61835;50.196;6.454;2022-09-14T01:14:30;95598.59;;;22.01;100.00
27232;BME280;61835;50.196;6.454;2022-09-14T01:17:10;95615.66;;;22.02;100.00
27232;BME280;61835;50.196;6.454;2022-09-14T01:20:04;95623.13;;;22.00;100.00
27232;BME280;61835;50.196;6.454;2022-09-14T01:22:44;95631.44;;;21.98;100.00
27232;BME280;61835;50.196;6.454;2022-09-14T01:26:06;95658.00;;;22.08;100.00
27232;BME280;61835;50.196;6.454;2022-09-14T01:31:13;95654.47;;;22.07;100.00
27232;BME280;61835;50.196;6.454;2022-09-14T01:33:46;95633.97;;;21.93;100.00
27232;BME280;61835;50.196;6.454;2022-09-14T01:36:17;95611.84;;;22.09;100.00
27232;BME280;61835;50.196;6.454;2022-09-14T01:38:45;95613.53;;;22.10;100.00
27232;BME280;61835;50.196;6.454;2022-09-14T01:41:15;95607.75;;;22.00;100.00
27232;BME280;61835;50.196;6.454;2022-09-14T01:43:49;95599.00;;;22.05;100.00
27232;BME280;61835;50.196;6.454;2022-09-14T01:46:25;95597.75;;;22.07;100.00
27232;BME280;61835;50.196;6.454;2022-09-14T01:49:20;95588.38;;;22.10;100.00
27232;BME280;61835;50.196;6.454;2022-09-14T01:52:00;95583.38;;;22.13;100.00
27232;BME280;61835;50.196;6.454;2022-09-14T01:54:36;95583.81;;;22.10;100.00
27232;BME280;61835;50.196;6.454;2022-09-14T01:57:08;95579.88;;;22.06;100.00
27232;BME280;61835;50.196;6.454;2022-09-14T01:59:43;95585.28;;;22.06;100.00
27232;BME280;61835;50.196;6.454;2022-09-14T02:04:58;95586.91;;;22.14;100.00
27232;BME280;61835;50.196;6.454;2022-09-14T02:07:25;95580.84;;;22.18;100.00
27232;BME280;61835;50.196;6.454;2022-09-14T02:09:52;95579.88;;;22.06;100.00
27232;BME280;61835;50.196;6.454;2022-09-14T02:12:19;95575.75;;;21.97;100.00
27232;BME280;61835;50.196;6.454;2022-09-14T02:14:47;95581.00;;;21.86;100.00
27232;BME280;61835;50.196;6.454;2022-09-14T02:17:14;95586.81;;;21.96;100.00
27232;BME280;61835;50.196;6.454;2022-09-14T02:19:45;95577.88;;;21.95;100.00
27232;BME280;61835;50.196;6.454;2022-09-14T02:22:12;95572.50;;;21.89;100.00
27232;BME280;61835;50.196;6.454;2022-09-14T02:24:38;95575.00;;;21.90;100.00
27232;BME280;61835;50.196;6.454;2022-09-14T02:27:05;95573.94;;;21.91;100.00
27232;BME280;61835;50.196;6.454;2022-09-14T02:29:31;95568.53;;;21.91;100.00
27232;BME280;61835;50.196;6.454;2022-09-14T02:34:40;95554.66;;;21.81;100.00
27232;BME280;61835;50.196;6.454;2022-09-14T02:42:22;95559.75;;;22.02;100.00
27232;BME280;61835;50.196;6.454;2022-09-14T02:50:32;95544.59;;;22.01;100.00
27232;BME280;61835;50.196;6.454;2022-09-14T02:53:17;95544.00;;;21.99;100.00
27232;BME280;61835;50.196;6.454;2022-09-14T02:55:48;95535.19;;;22.10;100.00
27232;BME280;61835;50.196;6.454;2022-09-14T02:58:14;95536.22;;;22.09;100.00
27232;BME280;61835;50.196;6.454;2022-09-14T03:00:43;95527.16;;;21.97;100.00
27232;BME280;61835;50.196;6.454;2022-09-14T03:03:11;95535.69;;;21.94;100.00
27232;BME280;61835;50.196;6.454;2022-09-14T03:05:37;95536.34;;;21.90;100.00
27232;BME280;61835;50.196;6.454;2022-09-14T03:08:03;95525.31;;;21.91;100.00
27232;BME280;61835;50.196;6.454;2022-09-14T03:10:30;95522.63;;;21.91;100.00
27232;BME280;61835;50.196;6.454;2022-09-14T03:12:56;95518.41;;;22.02;100.00
27232;BME280;61835;50.196;6.454;2022-09-14T03:15:22;95515.94;;;21.94;100.00
27232;BME280;61835;50.196;6.454;2022-09-14T03:17:48;95515.78;;;21.82;100.00
27232;BME280;61835;50.196;6.454;2022-09-14T03:20:23;95517.66;;;21.88;100.00
27232;BME280;61835;50.196;6.454;2022-09-14T03:22:49;95517.22;;;21.91;100.00
27232;BME280;61835;50.196;6.454;2022-09-14T03:25:14;95513.72;;;21.84;100.00
27232;BME280;61835;50.196;6.454;2022-09-14T03:27:40;95520.34;;;21.88;100.00
27232;BME280;61835;50.196;6.454;2022-09-14T03:30:07;95512.25;;;21.88;100.00
27232;BME280;61835;50.196;6.454;2022-09-14T03:32:33;95517.63;;;21.95;100.00
27232;BME280;61835;50.196;6.454;2022-09-14T03:34:59;95517.22;;;21.91;100.00
27232;BME280;61835;50.196;6.454;2022-09-14T03:37:25;95514.28;;;21.99;100.00
27232;BME280;61835;50.196;6.454;2022-09-14T03:39:51;95516.28;;;22.10;100.00
27232;BME280;61835;50.196;6.454;2022-09-14T03:42:16;95510.00;;;22.16;100.00
27232;BME280;61835;50.196;6.454;2022-09-14T03:44:42;95506.66;;;22.14;100.00
27232;BME280;61835;50.196;6.454;2022-09-14T03:47:08;95495.09;;;22.07;100.00
27232;BME280;61835;50.196;6.454;2022-09-14T03:49:33;95502.84;;;21.97;100.00
27232;BME280;61835;50.196;6.454;2022-09-14T03:51:59;95496.41;;;21.98;100.00
27232;BME280;61835;50.196;6.454;2022-09-14T03:54:26;95492.69;;;21.99;100.00
27232;BME280;61835;50.196;6.454;2022-09-14T03:56:52;95491.59;;;22.00;100.00
27232;BME280;61835;50.196;6.454;2022-09-14T03:59:19;95488.03;;;22.06;100.00
27232;BME280;61835;50.196;6.454;2022-09-14T04:01:45;95484.25;;;22.14;100.00
27232;BME280;61835;50.196;6.454;2022-09-14T04:04:11;95477.78;;;22.15;100.00
27232;BME280;61835;50.196;6.454;2022-09-14T04:06:37;95480.09;;;22.11;100.00
27232;BME280;61835;50.196;6.454;2022-09-14T04:09:02;95484.63;;;22.17;100.00
27232;BME280;61835;50.196;6.454;2022-09-14T04:11:29;95479.94;;;22.06;100.00
27232;BME280;61835;50.196;6.454;2022-09-14T04:14:00;95475.91;;;22.15;100.00
27232;BME280;61835;50.196;6.454;2022-09-14T04:16:26;95475.47;;;22.18;100.00
27232;BME280;61835;50.196;6.454;2022-09-14T04:18:52;95473.88;;;22.11;100.00
27232;BME280;61835;50.196;6.454;2022-09-14T04:21:21;95469.28;;;22.11;100.00
27232;BME280;61835;50.196;6.454;2022-09-14T04:23:47;95469.13;;;22.06;100.00
27232;BME280;61835;50.196;6.454;2022-09-14T04:26:16;95464.06;;;22.16;100.00
27232;BME280;61835;50.196;6.454;2022-09-14T04:28:42;95467.94;;;22.27;100.00
27232;BME280;61835;50.196;6.454;2022-09-14T04:31:10;95460.06;;;22.26;100.00
27232;BME280;61835;50.196;6.454;2022-09-14T04:33:37;95456.19;;;22.15;100.00
27232;BME280;61835;50.196;6.454;2022-09-14T04:36:13;95458.22;;;22.19;100.00
27232;BME280;61835;50.196;6.454;2022-09-14T04:38:43;95457.84;;;21.85;100.00
27232;BME280;61835;50.196;6.454;2022-09-14T04:41:14;95468.97;;;22.01;100.00
27232;BME280;61835;50.196;6.454;2022-09-14T04:43:40;95465.56;;;22.12;100.00
27232;BME280;61835;50.196;6.454;2022-09-14T04:46:10;95462.44;;;22.09;100.00
27232;BME280;61835;50.196;6.454;2022-09-14T04:48:36;95466.00;;;22.09;100.00
27232;BME280;61835;50.196;6.454;2022-09-14T04:51:10;95463.16;;;21.98;100.00
27232;BME280;61835;50.196;6.454;2022-09-14T04:53:38;95459.88;;;21.96;100.00
27232;BME280;61835;50.196;6.454;2022-09-14T04:56:07;95460.00;;;22.07;100.00
27232;BME280;61835;50.196;6.454;2022-09-14T04:58:35;95452.91;;;22.06;100.00
27232;BME280;61835;50.196;6.454;2022-09-14T05:01:05;95455.47;;;22.01;100.00
27232;BME280;61835;50.196;6.454;2022-09-14T05:03:33;95464.78;;;22.05;100.00
27232;BME280;61835;50.196;6.454;2022-09-14T05:06:14;95455.63;;;22.06;100.00
27232;BME280;61835;50.196;6.454;2022-09-14T05:08:40;95451.53;;;21.97;100.00
27232;BME280;61835;50.196;6.454;2022-09-14T05:11:11;95454.97;;;22.11;100.00
27232;BME280;61835;50.196;6.454;2022-09-14T05:13:37;95440.84;;;22.09;100.00
27232;BME280;61835;50.196;6.454;2022-09-14T05:16:12;95443.38;;;22.04;100.00
27232;BME280;61835;50.196;6.454;2022-09-14T05:18:39;95428.19;;;22.09;100.00
27232;BME280;61835;50.196;6.454;2022-09-14T05:21:07;95422.78;;;22.09;100.00
27232;BME280;61835;50.196;6.454;2022-09-14T05:23:33;95423.16;;;22.13;100.00
27232;BME280;61835;50.196;6.454;2022-09-14T05:25:59;95420.03;;;22.16;100.00
27232;BME280;61835;50.196;6.454;2022-09-14T05:28:25;95419.34;;;22.20;100.00
27232;BME280;61835;50.196;6.454;2022-09-14T05:30:51;95424.44;;;22.10;100.00
27232;BME280;61835;50.196;6.454;2022-09-14T05:33:17;95429.06;;;22.03;100.00
27232;BME280;61835;50.196;6.454;2022-09-14T05:35:43;95429.41;;;22.13;100.00
27232;BME280;61835;50.196;6.454;2022-09-14T05:38:09;95425.81;;;22.19;100.00
27232;BME280;61835;50.196;6.454;2022-09-14T05:40:35;95426.41;;;22.21;100.00
27232;BME280;61835;50.196;6.454;2022-09-14T05:43:00;95437.38;;;22.27;100.00
27232;BME280;61835;50.196;6.454;2022-09-14T05:45:26;95448.56;;;22.30;100.00
27232;BME280;61835;50.196;6.454;2022-09-14T05:47:51;95455.75;;;21.93;100.00
27232;BME280;61835;50.196;6.454;2022-09-14T05:50:16;95450.13;;;21.88;100.00
27232;BME280;61835;50.196;6.454;2022-09-14T05:52:42;95455.91;;;21.98;100.00
27232;BME280;61835;50.196;6.454;2022-09-14T05:55:08;95460.38;;;21.73;100.00
27232;BME280;61835;50.196;6.454;2022-09-14T05:57:33;95462.84;;;21.81;100.00
27232;BME280;61835;50.196;6.454;2022-09-14T05:59:59;95460.16;;;21.81;100.00
27232;BME280;61835;50.196;6.454;2022-09-14T06:02:25;95474.00;;;21.91;100.00
27232;BME280;61835;50.196;6.454;2022-09-14T06:04:50;95468.72;;;22.03;100.00
27232;BME280;61835;50.196;6.454;2022-09-14T06:07:16;95467.78;;;22.22;100.00
27232;BME280;61835;50.196;6.454;2022-09-14T06:09:41;95462.25;;;22.10;100.00
27232;BME280;61835;50.196;6.454;2022-09-14T06:12:07;95463.75;;;22.00;100.00
27232;BME280;61835;50.196;6.454;2022-09-14T06:14:33;95467.72;;;21.97;100.00
27232;BME280;61835;50.196;6.454;2022-09-14T06:16:59;95461.19;;;21.80;100.00
27232;BME280;61835;50.196;6.454;2022-09-14T06:19:25;95467.34;;;21.94;100.00
27232;BME280;61835;50.196;6.454;2022-09-14T06:21:50;95456.78;;;21.92;100.00
27232;BME280;61835;50.196;6.454;2022-09-14T06:24:15;95451.34;;;21.99;100.00
27232;BME280;61835;50.196;6.454;2022-09-14T06:26:41;95457.91;;;21.72;100.00
27232;BME280;61835;50.196;6.454;2022-09-14T06:29:07;95452.97;;;22.00;100.00
27232;BME280;61835;50.196;6.454;2022-09-14T06:31:33;95448.47;;;21.87;100.00
27232;BME280;61835;50.196;6.454;2022-09-14T06:33:58;95441.25;;;21.81;100.00
27232;BME280;61835;50.196;6.454;2022-09-14T06:36:25;95446.53;;;22.01;100.00
27232;BME280;61835;50.196;6.454;2022-09-14T06:38:52;95446.81;;;22.17;100.00
27232;BME280;61835;50.196;6.454;2022-09-14T06:41:20;95451.88;;;22.07;100.00
27232;BME280;61835;50.196;6.454;2022-09-14T06:43:47;95442.34;;;22.05;100.00
27232;BME280;61835;50.196;6.454;2022-09-14T06:46:24;95437.38;;;22.02;100.00
27232;BME280;61835;50.196;6.454;2022-09-14T06:48:56;95432.97;;;22.07;100.00
27232;BME280;61835;50.196;6.454;2022-09-14T06:51:34;95437.69;;;22.12;100.00
27232;BME280;61835;50.196;6.454;2022-09-14T06:54:01;95433.03;;;22.26;100.00
27232;BME280;61835;50.196;6.454;2022-09-14T06:56:28;95432.50;;;22.35;100.00
27232;BME280;61835;50.196;6.454;2022-09-14T06:58:56;95439.88;;;22.28;100.00
27232;BME280;61835;50.196;6.454;2022-09-14T07:01:22;95427.47;;;21.96;100.00
27232;BME280;61835;50.196;6.454;2022-09-14T07:03:48;95428.06;;;22.22;100.00
27232;BME280;61835;50.196;6.454;2022-09-14T07:06:20;95427.56;;;22.07;100.00
27232;BME280;61835;50.196;6.454;2022-09-14T07:08:47;95424.25;;;22.30;100.00
27232;BME280;61835;50.196;6.454;2022-09-14T07:11:15;95416.28;;;22.17;100.00
27232;BME280;61835;50.196;6.454;2022-09-14T07:13:41;95419.88;;;22.11;100.00
27232;BME280;61835;50.196;6.454;2022-09-14T07:16:08;95435.16;;;22.42;100.00
27232;BME280;61835;50.196;6.454;2022-09-14T07:18:33;95448.19;;;22.27;100.00
27232;BME280;61835;50.196;6.454;2022-09-14T07:21:04;95451.97;;;21.94;100.00
27232;BME280;61835;50.196;6.454;2022-09-14T07:23:30;95450.66;;;22.03;100.00
27232;BME280;61835;50.196;6.454;2022-09-14T07:26:16;95451.13;;;21.94;100.00
27232;BME280;61835;50.196;6.454;2022-09-14T07:28:44;95459.50;;;21.79;100.00
27232;BME280;61835;50.196;6.454;2022-09-14T07:31:22;95454.38;;;21.71;100.00
27232;BME280;61835;50.196;6.454;2022-09-14T07:33:52;95447.03;;;21.85;100.00
27232;BME280;61835;50.196;6.454;2022-09-14T07:36:18;95443.06;;;22.18;100.00
27232;BME280;61835;50.196;6.454;2022-09-14T07:38:44;95441.41;;;22.17;100.00
27232;BME280;61835;50.196;6.454;2022-09-14T07:41:09;95432.09;;;22.13;100.00
27232;BME280;61835;50.196;6.454;2022-09-14T07:43:35;95434.81;;;22.13;100.00
27232;BME280;61835;50.196;6.454;2022-09-14T07:46:02;95434.31;;;22.23;100.00
27232;BME280;61835;50.196;6.454;2022-09-14T07:48:29;95434.84;;;22.32;100.00
27232;BME280;61835;50.196;6.454;2022-09-14T07:50:59;95426.16;;;22.48;100.00
27232;BME280;61835;50.196;6.454;2022-09-14T07:53:25;95433.56;;;22.09;100.00
27232;BME280;61835;50.196;6.454;2022-09-14T07:55:50;95435.31;;;22.47;100.00
27232;BME280;61835;50.196;6.454;2022-09-14T07:58:17;95439.38;;;22.56;100.00
27232;BME280;61835;50.196;6.454;2022-09-14T08:00:42;95438.03;;;22.71;100.00
27232;BME280;61835;50.196;6.454;2022-09-14T08:03:08;95447.44;;;22.87;100.00
27232;BME280;61835;50.196;6.454;2022-09-14T08:05:34;95450.19;;;22.81;100.00
27232;BME280;61835;50.196;6.454;2022-09-14T08:07:59;95457.66;;;22.60;100.00
27232;BME280;61835;50.196;6.454;2022-09-14T08:10:25;95453.03;;;22.67;100.00
27232;BME280;61835;50.196;6.454;2022-09-14T08:12:52;95453.81;;;23.11;100.00
27232;BME280;61835;50.196;6.454;2022-09-14T08:15:20;95445.84;;;23.16;100.00
27232;BME280;61835;50.196;6.454;2022-09-14T08:17:46;95443.38;;;23.14;100.00
27232;BME280;61835;50.196;6.454;2022-09-14T08:20:12;95442.53;;;23.14;100.00
27232;BME280;61835;50.196;6.454;2022-09-14T08:22:38;95436.69;;;23.17;100.00
27232;BME280;61835;50.196;6.454;2022-09-14T08:25:03;95442.09;;;23.17;100.00
27232;BME280;61835;50.196;6.454;2022-09-14T08:27:29;95448.09;;;22.64;100.00
27232;BME280;61835;50.196;6.454;2022-09-14T08:29:55;95441.63;;;22.84;100.00
27232;BME280;61835;50.196;6.454;2022-09-14T08:32:20;95439.38;;;23.17;100.00
27232;BME280;61835;50.196;6.454;2022-09-14T08:34:46;95439.31;;;23.23;100.00
27232;BME280;61835;50.196;6.454;2022-09-14T08:37:12;95440.66;;;23.14;100.00
27232;BME280;61835;50.196;6.454;2022-09-14T08:39:39;95432.97;;;23.48;100.00
27232;BME280;61835;50.196;6.454;2022-09-14T08:42:13;95430.41;;;23.34;100.00
27232;BME280;61835;50.196;6.454;2022-09-14T08:44:47;95437.66;;;23.70;100.00
27232;BME280;61835;50.196;6.454;2022-09-14T08:47:33;95442.38;;;23.75;100.00
27232;BME280;61835;50.196;6.454;2022-09-14T08:50:14;95440.66;;;23.92;100.00
27232;BME280;61835;50.196;6.454;2022-09-14T08:52:44;95435.38;;;23.56;100.00
27232;BME280;61835;50.196;6.454;2022-09-14T08:55:33;95442.97;;;23.47;100.00
27232;BME280;61835;50.196;6.454;2022-09-14T09:00:43;95465.69;;;23.28;100.00
27232;BME280;61835;50.196;6.454;2022-09-14T09:06:25;95465.69;;;23.28;100.00
27232;BME280;61835;50.196;6.454;2022-09-14T09:11:43;95458.97;;;23.30;100.00
27232;BME280;61835;50.196;6.454;2022-09-14T09:14:32;95467.88;;;23.19;100.00
27232;BME280;61835;50.196;6.454;2022-09-14T09:17:02;95455.53;;;23.23;100.00
27232;BME280;61835;50.196;6.454;2022-09-14T09:19:33;95469.22;;;23.10;100.00
27232;BME280;61835;50.196;6.454;2022-09-14T09:22:00;95491.78;;;23.22;100.00
27232;BME280;61835;50.196;6.454;2022-09-14T09:24:41;95494.22;;;23.06;100.00
27232;BME280;61835;50.196;6.454;2022-09-14T09:27:11;95490.38;;;22.77;100.00
27232;BME280;61835;50.196;6.454;2022-09-14T09:29:38;95494.84;;;22.65;100.00
27232;BME280;61835;50.196;6.454;2022-09-14T09:32:18;95478.50;;;22.53;100.00
27232;BME280;61835;50.196;6.454;2022-09-14T09:34:45;95494.94;;;22.76;100.00
27232;BME280;61835;50.196;6.454;2022-09-14T09:37:22;95491.03;;;22.48;100.00
27232;BME280;61835;50.196;6.454;2022-09-14T09:39:48;95484.78;;;22.47;100.00
27232;BME280;61835;50.196;6.454;2022-09-14T09:42:24;95486.41;;;22.55;100.00
27232;BME280;61835;50.196;6.454;2022-09-14T09:45:00;95487.50;;;22.47;100.00
27232;BME280;61835;50.196;6.454;2022-09-14T09:47:34;95485.88;;;22.46;100.00
27232;BME280;61835;50.196;6.454;2022-09-14T09:50:05;95486.47;;;22.48;100.00
27232;BME280;61835;50.196;6.454;2022-09-14T09:52:31;95483.38;;;22.45;100.00
27232;BME280;61835;50.196;6.454;2022-09-14T09:54:58;95475.81;;;22.53;100.00
27232;BME280;61835;50.196;6.454;2022-09-14T10:00:18;95476.88;;;22.52;100.00
27232;BME280;61835;50.196;6.454;2022-09-14T10:02:44;95476.03;;;22.52;100.00
27232;BME280;61835;50.196;6.454;2022-09-14T10:07:52;95464.00;;;22.48;100.00
27232;BME280;61835;50.196;6.454;2022-09-14T10:10:23;95460.22;;;22.55;100.00
27232;BME280;61835;50.196;6.454;2022-09-14T10:12:53;95460.56;;;22.59;100.00
27232;BME280;61835;50.196;6.454;2022-09-14T10:15:25;95449.06;;;23.06;100.00
27232;BME280;61835;50.196;6.454;2022-09-14T10:20:25;95426.91;;;23.64;100.00
27232;BME280;61835;50.196;6.454;2022-09-14T10:22:51;95424.69;;;24.02;100.00
27232;BME280;61835;50.196;6.454;2022-09-14T10:30:25;95394.91;;;24.83;100.00
27232;BME280;61835;50.196;6.454;2022-09-14T10:32:54;95386.44;;;24.91;100.00
27232;BME280;61835;50.196;6.454;2022-09-14T10:35:22;95390.75;;;25.44;100.00
27232;BME280;61835;50.196;6.454;2022-09-14T10:38:24;95389.38;;;25.86;100.00
27232;BME280;61835;50.196;6.454;2022-09-14T10:41:07;95384.78;;;25.87;100.00
27232;BME280;61835;50.196;6.454;2022-09-14T10:46:20;95385.66;;;25.47;100.00
27232;BME280;61835;50.196;6.454;2022-09-14T10:49:13;95380.13;;;25.42;100.00
27232;BME280;61835;50.196;6.454;2022-09-14T10:51:44;95367.25;;;25.49;100.00
27232;BME280;61835;50.196;6.454;2022-09-14T10:59:54;95363.22;;;25.80;100.00
27232;BME280;61835;50.196;6.454;2022-09-14T11:02:40;95360.78;;;26.29;100.00
27232;BME280;61835;50.196;6.454;2022-09-14T11:05:14;95354.16;;;27.18;100.00
27232;BME280;61835;50.196;6.454;2022-09-14T11:07:51;95352.91;;;26.49;100.00
27232;BME280;61835;50.196;6.454;2022-09-14T11:18:46;95343.56;;;27.70;100.00
27232;BME280;61835;50.196;6.454;2022-09-14T11:21:30;95331.72;;;27.81;100.00
27232;BME280;61835;50.196;6.454;2022-09-14T11:24:16;95328.59;;;27.73;100.00
27232;BME280;61835;50.196;6.454;2022-09-14T11:26:58;95333.31;;;27.82;100.00
27232;BME280;61835;50.196;6.454;2022-09-14T11:29:29;95323.84;;;28.16;100.00
27232;BME280;61835;50.196;6.454;2022-09-14T11:32:16;95320.19;;;28.85;100.00
27232;BME280;61835;50.196;6.454;2022-09-14T11:35:03;95309.63;;;28.98;100.00
27232;BME280;61835;50.196;6.454;2022-09-14T11:37:41;95295.59;;;29.47;100.00
27232;BME280;61835;50.196;6.454;2022-09-14T11:40:20;95294.81;;;29.66;100.00
27232;BME280;61835;50.196;6.454;2022-09-14T11:42:54;95309.59;;;29.75;100.00
27232;BME280;61835;50.196;6.454;2022-09-14T11:45:23;95304.31;;;29.33;100.00
27232;BME280;61835;50.196;6.454;2022-09-14T11:50:42;95298.94;;;28.08;100.00
27232;BME280;61835;50.196;6.454;2022-09-14T11:53:14;95310.16;;;27.53;100.00
27232;BME280;61835;50.196;6.454;2022-09-14T11:55:45;95319.50;;;27.13;100.00
27232;BME280;61835;50.196;6.454;2022-09-14T11:58:24;95314.00;;;26.87;100.00
27232;BME280;61835;50.196;6.454;2022-09-14T12:03:21;95326.34;;;26.01;100.00
27232;BME280;61835;50.196;6.454;2022-09-14T12:05:48;95332.41;;;25.75;100.00
27232;BME280;61835;50.196;6.454;2022-09-14T12:13:35;95345.84;;;25.25;100.00
27232;BME280;61835;50.196;6.454;2022-09-14T12:16:06;95354.06;;;25.41;100.00
27232;BME280;61835;50.196;6.454;2022-09-14T12:18:35;95345.22;;;25.34;100.00
27232;BME280;61835;50.196;6.454;2022-09-14T12:36:02;95319.25;;;26.00;100.00
27232;BME280;61835;50.196;6.454;2022-09-14T12:40:57;95309.78;;;26.57;100.00
27232;BME280;61835;50.196;6.454;2022-09-14T12:57:14;95290.19;;;26.55;100.00
27232;BME280;61835;50.196;6.454;2022-09-14T13:05:15;95291.72;;;25.96;100.00
27232;BME280;61835;50.196;6.454;2022-09-14T13:07:41;95283.41;;;26.03;100.00
27232;BME280;61835;50.196;6.454;2022-09-14T13:12:54;95298.56;;;25.66;100.00
27232;BME280;61835;50.196;6.454;2022-09-14T13:15:23;95298.56;;;25.37;100.00
27232;BME280;61835;50.196;6.454;2022-09-14T13:18:26;95282.75;;;25.18;100.00
27232;BME280;61835;50.196;6.454;2022-09-14T13:20:54;95272.97;;;25.62;100.00
27232;BME280;61835;50.196;6.454;2022-09-14T13:23:22;95267.47;;;25.28;100.00
27232;BME280;61835;50.196;6.454;2022-09-14T13:25:48;95271.56;;;25.14;100.00
27232;BME280;61835;50.196;6.454;2022-09-14T13:28:16;95275.38;;;25.02;100.00
27232;BME280;61835;50.196;6.454;2022-09-14T13:30:52;95275.03;;;24.98;100.00
27232;BME280;61835;50.196;6.454;2022-09-14T13:33:18;95271.66;;;24.91;100.00
27232;BME280;61835;50.196;6.454;2022-09-14T13:35:46;95273.53;;;25.19;100.00
27232;BME280;61835;50.196;6.454;2022-09-14T13:38:16;95281.41;;;24.92;100.00
27232;BME280;61835;50.196;6.454;2022-09-14T13:40:43;95271.88;;;24.78;100.00
27232;BME280;61835;50.196;6.454;2022-09-14T13:43:10;95265.06;;;24.75;100.00
27232;BME280;61835;50.196;6.454;2022-09-14T13:45:35;95257.16;;;24.85;100.00
27232;BME280;61835;50.196;6.454;2022-09-14T13:48:03;95262.13;;;24.65;100.00
27232;BME280;61835;50.196;6.454;2022-09-14T13:50:29;95277.13;;;24.68;100.00
27232;BME280;61835;50.196;6.454;2022-09-14T13:52:55;95271.53;;;24.86;100.00
27232;BME280;61835;50.196;6.454;2022-09-14T13:58:11;95279.94;;;24.84;100.00
27232;BME280;61835;50.196;6.454;2022-09-14T14:05:49;95263.53;;;24.16;100.00
27232;BME280;61835;50.196;6.454;2022-09-14T14:10:52;95357.13;;;23.18;100.00
27232;BME280;61835;50.196;6.454;2022-09-14T14:13:30;95401.59;;;21.44;100.00
27232;BME280;61835;50.196;6.454;2022-09-14T14:16:18;95387.66;;;21.16;100.00
27232;BME280;61835;50.196;6.454;2022-09-14T14:18:55;95370.31;;;21.36;100.00
27232;BME280;61835;50.196;6.454;2022-09-14T14:23:46;95338.09;;;21.97;100.00
27232;BME280;61835;50.196;6.454;2022-09-14T14:26:16;95326.13;;;21.93;100.00
27232;BME280;61835;50.196;6.454;2022-09-14T14:28:43;95312.41;;;22.13;100.00
27232;BME280;61835;50.196;6.454;2022-09-14T14:31:17;95323.09;;;21.52;100.00
27232;BME280;61835;50.196;6.454;2022-09-14T14:33:51;95363.41;;;21.47;100.00
27232;BME280;61835;50.196;6.454;2022-09-14T14:36:18;95377.75;;;21.09;100.00
27232;BME280;61835;50.196;6.454;2022-09-14T14:38:44;95383.13;;;21.79;100.00
27232;BME280;61835;50.196;6.454;2022-09-14T14:41:17;95380.59;;;21.52;100.00
27232;BME280;61835;50.196;6.454;2022-09-14T14:43:45;95374.31;;;21.58;100.00
27232;BME280;61835;50.196;6.454;2022-09-14T14:46:12;95354.03;;;21.18;100.00
27232;BME280;61835;50.196;6.454;2022-09-14T14:48:39;95330.38;;;21.76;100.00
27232;BME280;61835;50.196;6.454;2022-09-14T14:51:11;95335.88;;;21.63;100.00
27232;BME280;61835;50.196;6.454;2022-09-14T14:53:38;95346.75;;;21.50;100.00
27232;BME280;61835;50.196;6.454;2022-09-14T14:56:04;95347.59;;;21.50;100.00
27232;BME280;61835;50.196;6.454;2022-09-14T14:58:30;95347.28;;;21.65;100.00
27232;BME280;61835;50.196;6.454;2022-09-14T15:00:55;95353.75;;;21.64;100.00
27232;BME280;61835;50.196;6.454;2022-09-14T15:03:21;95360.25;;;21.50;100.00
27232;BME280;61835;50.196;6.454;2022-09-14T15:05:47;95357.03;;;21.66;100.00
27232;BME280;61835;50.196;6.454;2022-09-14T15:08:14;95348.78;;;21.61;100.00
27232;BME280;61835;50.196;6.454;2022-09-14T15:10:40;95338.78;;;21.61;100.00
27232;BME280;61835;50.196;6.454;2022-09-14T15:13:07;95343.19;;;21.56;100.00